createdAt,value
2022-08-14T00:01:02.254Z,20.67
2022-08-14T00:03:36.292Z,20.68
2022-08-14T00:06:02.619Z,20.63
2022-08-14T00:08:49.009Z,20.63
2022-08-14T00:11:15.892Z,20.60
2022-08-14T00:13:43.355Z,20.58
2022-08-14T00:16:41.499Z,20.52
2022-08-14T00:19:06.967Z,20.47
2022-08-14T00:21:45.259Z,20.46
2022-08-14T00:24:11.557Z,20.42
2022-08-14T00:26:39.161Z,20.42
2022-08-14T00:29:05.958Z,20.42
2022-08-14T00:31:44.284Z,20.39
2022-08-14T00:34:35.516Z,20.35
2022-08-14T00:36:59.250Z,20.38
2022-08-14T00:39:25.853Z,20.34
2022-08-14T00:41:52.226Z,20.34
2022-08-14T00:44:27.630Z,20.29
2022-08-14T00:46:59.802Z,20.15
2022-08-14T00:49:28.658Z,20.09
2022-08-14T00:51:56.586Z,20.09
2022-08-14T00:54:24.562Z,19.93
2022-08-14T00:56:51.557Z,20.07
2022-08-14T00:59:23.217Z,20.08
2022-08-14T01:01:51.310Z,20.11
2022-08-14T01:04:38.139Z,20.01
2022-08-14T01:07:08.258Z,19.91
2022-08-14T01:09:35.470Z,19.96
2022-08-14T01:12:03.186Z,19.93
2022-08-14T01:14:29.842Z,19.97
2022-08-14T01:16:56.143Z,19.99
2022-08-14T01:19:41.313Z,19.97
2022-08-14T01:22:07.836Z,19.91
2022-08-14T01:24:39.142Z,19.89
2022-08-14T01:27:07.172Z,19.91
2022-08-14T01:29:58.223Z,19.79
2022-08-14T01:32:24.062Z,19.73
2022-08-14T01:35:18.573Z,19.76
2022-08-14T01:37:38.257Z,19.69
2022-08-14T01:40:11.120Z,19.56
2022-08-14T01:42:37.488Z,19.72
2022-08-14T01:45:11.503Z,19.72
2022-08-14T01:47:38.818Z,19.74
2022-08-14T01:50:06.346Z,19.72
2022-08-14T01:52:34.178Z,19.69
2022-08-14T01:55:18.936Z,19.65
2022-08-14T01:57:49.386Z,19.65
2022-08-14T02:00:28.464Z,19.61
2022-08-14T02:02:58.122Z,19.58
2022-08-14T02:05:25.168Z,19.57
2022-08-14T02:07:55.784Z,19.44
2022-08-14T02:10:26.220Z,19.45
2022-08-14T02:12:56.897Z,19.44
2022-08-14T02:15:23.700Z,18.99
2022-08-14T02:17:49.999Z,19.28
2022-08-14T02:20:17.785Z,19.32
2022-08-14T02:22:52.001Z,19.38
2022-08-14T02:25:20.791Z,19.39
2022-08-14T02:28:23.644Z,19.37
2022-08-14T02:30:38.461Z,19.34
2022-08-14T02:33:05.553Z,19.34
2022-08-14T02:35:32.735Z,19.34
2022-08-14T02:37:59.518Z,19.25
2022-08-14T02:40:32.131Z,19.19
2022-08-14T02:43:00.718Z,19.15
2022-08-14T02:45:38.027Z,19.20
2022-08-14T02:49:01.293Z,19.22
2022-08-14T02:50:57.159Z,19.22
2022-08-14T02:53:27.330Z,19.16
2022-08-14T02:55:56.295Z,19.17
2022-08-14T02:58:30.308Z,19.18
2022-08-14T03:00:58.036Z,19.07
2022-08-14T03:03:25.042Z,19.04
2022-08-14T03:05:52.063Z,19.10
2022-08-14T03:08:20.735Z,19.02
2022-08-14T03:10:48.925Z,18.97
2022-08-14T03:13:20.864Z,19.06
2022-08-14T03:15:55.833Z,19.06
2022-08-14T03:18:31.938Z,19.06
2022-08-14T03:20:58.883Z,18.97
2022-08-14T03:23:25.380Z,18.98
2022-08-14T03:25:52.137Z,18.94
2022-08-14T03:28:33.378Z,18.96
2022-08-14T03:31:00.182Z,18.92
2022-08-14T03:33:27.818Z,18.97
2022-08-14T03:36:05.346Z,18.91
2022-08-14T03:39:14.043Z,18.86
2022-08-14T03:41:33.180Z,18.92
2022-08-14T03:45:25.439Z,18.95
2022-08-14T03:46:54.721Z,18.97
2022-08-14T03:49:28.350Z,18.98
2022-08-14T03:51:55.070Z,18.90
2022-08-14T03:54:21.390Z,18.68
2022-08-14T03:56:50.158Z,18.54
2022-08-14T03:59:18.077Z,18.64
2022-08-14T04:01:54.078Z,18.76
2022-08-14T04:04:27.963Z,18.64
2022-08-14T04:06:54.710Z,18.75
2022-08-14T04:09:26.659Z,18.86
2022-08-14T04:11:53.321Z,18.86
2022-08-14T04:14:20.065Z,18.89
2022-08-14T04:16:47.329Z,18.87
2022-08-14T04:19:15.900Z,19.00
2022-08-14T04:22:03.277Z,19.11
2022-08-14T04:24:29.188Z,19.24
2022-08-14T04:26:55.685Z,19.29
2022-08-14T04:29:22.049Z,19.25
2022-08-14T04:32:59.062Z,19.39
2022-08-14T04:34:42.027Z,19.45
2022-08-14T04:37:27.066Z,19.42
2022-08-14T04:40:15.121Z,19.53
2022-08-14T04:43:00.171Z,19.66
2022-08-14T04:45:29.710Z,19.75
2022-08-14T04:48:39.048Z,19.81
2022-08-14T04:51:01.252Z,19.97
2022-08-14T04:53:34.790Z,19.97
2022-08-14T04:56:02.091Z,19.90
2022-08-14T04:58:32.235Z,19.91
2022-08-14T05:00:59.455Z,20.13
2022-08-14T05:03:26.215Z,20.26
2022-08-14T05:05:54.419Z,20.36
2022-08-14T05:08:32.277Z,20.49
2022-08-14T05:11:07.130Z,20.63
2022-08-14T05:14:16.177Z,20.49
2022-08-14T05:16:29.197Z,20.72
2022-08-14T05:19:19.125Z,20.86
2022-08-14T05:21:57.236Z,20.99
2022-08-14T05:24:27.773Z,21.11
2022-08-14T05:26:54.175Z,21.19
2022-08-14T05:29:21.622Z,21.30
2022-08-14T05:31:47.959Z,21.35
2022-08-14T05:34:14.308Z,21.38
2022-08-14T05:36:42.456Z,21.45
2022-08-14T05:39:08.760Z,21.59
2022-08-14T05:41:52.376Z,21.62
2022-08-14T05:44:20.331Z,21.50
2022-08-14T05:46:46.649Z,21.68
2022-08-14T05:49:13.767Z,21.79
2022-08-14T05:51:41.094Z,21.62
2022-08-14T05:54:10.185Z,21.60
2022-08-14T05:56:39.648Z,21.84
2022-08-14T05:59:05.968Z,21.96
2022-08-14T06:01:33.788Z,21.99
2022-08-14T06:04:00.256Z,22.03
2022-08-14T06:06:26.611Z,22.18
2022-08-14T06:08:52.909Z,22.18
2022-08-14T06:11:27.839Z,22.14
2022-08-14T06:13:57.219Z,22.34
2022-08-14T06:16:23.521Z,22.39
2022-08-14T06:18:52.693Z,22.46
2022-08-14T06:21:19.532Z,22.64
2022-08-14T06:23:48.984Z,22.35
2022-08-14T06:26:15.443Z,22.54
2022-08-14T06:28:45.665Z,22.71
2022-08-14T06:31:12.038Z,22.41
2022-08-14T06:35:03.055Z,22.79
2022-08-14T06:36:24.757Z,22.96
2022-08-14T06:38:51.048Z,22.80
2022-08-14T06:41:20.746Z,22.95
2022-08-14T06:44:02.499Z,22.90
2022-08-14T06:46:34.368Z,22.79
2022-08-14T06:49:03.442Z,22.70
2022-08-14T06:51:38.802Z,22.70
2022-08-14T06:54:11.075Z,22.88
2022-08-14T06:56:38.266Z,22.97
2022-08-14T06:59:05.250Z,23.19
2022-08-14T07:01:50.228Z,23.26
2022-08-14T07:04:41.521Z,23.23
2022-08-14T07:07:07.818Z,23.27
2022-08-14T07:09:43.573Z,23.30
2022-08-14T07:12:56.112Z,23.52
2022-08-14T07:15:03.176Z,23.75
2022-08-14T07:17:32.050Z,23.72
2022-08-14T07:20:00.544Z,23.78
2022-08-14T07:22:33.017Z,23.87
2022-08-14T07:25:13.669Z,23.64
2022-08-14T07:27:40.772Z,23.26
2022-08-14T07:30:09.226Z,23.70
2022-08-14T07:32:55.349Z,23.64
2022-08-14T07:35:21.663Z,24.13
2022-08-14T07:37:49.963Z,24.49
2022-08-14T07:40:27.459Z,24.57
2022-08-14T07:42:56.148Z,24.68
2022-08-14T07:45:22.459Z,24.88
2022-08-14T07:47:48.772Z,24.51
2022-08-14T07:50:16.625Z,24.49
2022-08-14T07:52:46.623Z,24.86
2022-08-14T07:55:13.059Z,24.63
2022-08-14T07:57:40.040Z,24.30
2022-08-14T08:00:09.570Z,24.24
2022-08-14T08:02:57.106Z,24.22
2022-08-14T08:05:26.722Z,24.08
2022-08-14T08:07:53.045Z,24.62
2022-08-14T08:11:01.493Z,24.84
2022-08-14T08:13:17.832Z,24.65
2022-08-14T08:15:44.725Z,25.00
2022-08-14T08:18:27.790Z,24.78
2022-08-14T08:20:59.637Z,24.95
2022-08-14T08:23:40.015Z,25.00
2022-08-14T08:26:09.724Z,25.15
2022-08-14T08:28:36.020Z,25.32
2022-08-14T08:31:02.319Z,25.44
2022-08-14T08:33:32.023Z,25.31
2022-08-14T08:35:58.704Z,25.11
2022-08-14T08:39:18.146Z,25.38
2022-08-14T08:41:11.729Z,25.29
2022-08-14T08:43:38.295Z,25.57
2022-08-14T08:46:04.626Z,25.69
2022-08-14T08:48:31.643Z,25.75
2022-08-14T08:51:02.692Z,26.03
2022-08-14T08:53:32.043Z,26.10
2022-08-14T08:55:58.836Z,26.27
2022-08-14T08:58:25.662Z,26.03
2022-08-14T09:00:54.046Z,26.34
2022-08-14T09:03:21.487Z,26.32
2022-08-14T09:05:47.809Z,26.53
2022-08-14T09:08:31.060Z,26.60
2022-08-14T09:10:59.348Z,26.75
2022-08-14T09:13:26.818Z,26.81
2022-08-14T09:15:56.811Z,26.88
2022-08-14T09:18:23.114Z,26.87
2022-08-14T09:20:49.500Z,27.13
2022-08-14T09:23:16.834Z,26.97
2022-08-14T09:26:00.464Z,27.29
2022-08-14T09:28:28.031Z,26.76
2022-08-14T09:30:54.847Z,26.75
2022-08-14T09:33:22.843Z,26.84
2022-08-14T09:35:49.705Z,27.19
2022-08-14T09:38:26.178Z,27.32
2022-08-14T09:40:53.708Z,27.26
2022-08-14T09:43:22.363Z,27.47
2022-08-14T09:45:53.511Z,27.43
2022-08-14T09:48:20.229Z,27.08
2022-08-14T09:50:54.086Z,27.36
2022-08-14T09:53:20.503Z,27.69
2022-08-14T09:55:47.074Z,27.72
2022-08-14T09:58:19.974Z,27.72
2022-08-14T10:00:49.295Z,27.62
2022-08-14T10:03:15.654Z,27.64
2022-08-14T10:05:42.029Z,27.67
2022-08-14T10:08:14.920Z,27.99
2022-08-14T10:10:41.782Z,28.09
2022-08-14T10:13:08.123Z,27.90
2022-08-14T10:15:35.707Z,27.83
2022-08-14T10:18:01.991Z,28.03
2022-08-14T10:20:40.670Z,28.25
2022-08-14T10:23:13.573Z,28.09
2022-08-14T10:25:43.471Z,28.52
2022-08-14T10:28:39.379Z,28.56
2022-08-14T10:30:56.056Z,28.73
2022-08-14T10:33:22.353Z,28.90
2022-08-14T10:35:48.810Z,29.07
2022-08-14T10:38:15.127Z,28.97
2022-08-14T10:40:52.225Z,28.76
2022-08-14T10:43:25.503Z,28.89
2022-08-14T10:45:59.640Z,28.76
2022-08-14T10:48:37.145Z,29.10
2022-08-14T10:51:08.455Z,28.92
2022-08-14T10:53:37.026Z,29.07
2022-08-14T10:56:06.985Z,29.07
2022-08-14T10:58:48.919Z,29.27
2022-08-14T11:01:15.415Z,29.27
2022-08-14T11:03:56.979Z,29.22
2022-08-14T11:06:24.764Z,29.05
2022-08-14T11:08:52.044Z,29.00
2022-08-14T11:11:21.384Z,28.88
2022-08-14T11:13:48.555Z,29.28
2022-08-14T11:16:18.216Z,29.12
2022-08-14T11:18:46.223Z,29.19
2022-08-14T11:21:18.552Z,29.33
2022-08-14T11:23:49.250Z,29.35
2022-08-14T11:26:19.972Z,29.39
2022-08-14T11:28:48.709Z,29.74
2022-08-14T11:31:16.686Z,29.95
2022-08-14T11:33:43.111Z,30.15
2022-08-14T11:36:17.738Z,29.94
2022-08-14T11:38:48.204Z,29.75
2022-08-14T11:41:17.154Z,29.68
2022-08-14T11:43:46.866Z,29.37
2022-08-14T11:46:30.451Z,29.60
2022-08-14T11:49:05.423Z,29.83
2022-08-14T11:51:36.100Z,29.79
2022-08-14T11:54:19.631Z,29.86
2022-08-14T11:56:49.811Z,29.63
2022-08-14T11:59:17.918Z,29.45
2022-08-14T12:01:46.212Z,29.46
2022-08-14T12:04:32.209Z,29.32
2022-08-14T12:07:01.064Z,28.98
2022-08-14T12:09:27.912Z,28.85
2022-08-14T12:11:54.210Z,28.92
2022-08-14T12:14:30.211Z,28.55
2022-08-14T12:17:01.936Z,28.87
2022-08-14T12:19:28.622Z,29.24
2022-08-14T12:21:59.897Z,29.03
2022-08-14T12:24:35.737Z,28.97
2022-08-14T12:27:03.407Z,28.99
2022-08-14T12:29:29.748Z,28.99
2022-08-14T12:31:58.445Z,29.50
2022-08-14T12:34:26.129Z,29.28
2022-08-14T12:36:52.433Z,29.74
2022-08-14T12:39:18.778Z,29.55
2022-08-14T12:41:45.796Z,29.66
2022-08-14T12:44:21.504Z,29.77
2022-08-14T12:46:49.061Z,29.77
2022-08-14T12:49:16.961Z,29.84
2022-08-14T12:51:44.054Z,29.53
2022-08-14T12:54:18.565Z,29.93
2022-08-14T12:56:54.182Z,30.08
2022-08-14T12:59:20.620Z,30.06
2022-08-14T13:01:59.862Z,29.61
2022-08-14T13:04:31.171Z,30.04
2022-08-14T13:06:57.450Z,30.24
2022-08-14T13:09:35.814Z,30.34
2022-08-14T13:12:34.833Z,30.37
2022-08-14T13:14:52.768Z,30.56
2022-08-14T13:17:18.994Z,30.42
2022-08-14T13:19:45.622Z,30.22
2022-08-14T13:22:28.879Z,30.09
2022-08-14T13:24:58.274Z,29.41
2022-08-14T13:27:24.650Z,29.70
2022-08-14T13:29:53.762Z,29.93
2022-08-14T13:32:20.059Z,29.40
2022-08-14T13:34:46.859Z,29.35
2022-08-14T13:37:14.171Z,29.45
2022-08-14T13:39:40.639Z,29.64
2022-08-14T13:42:13.423Z,29.77
2022-08-14T13:44:42.612Z,29.66
2022-08-14T13:47:09.527Z,29.50
2022-08-14T13:49:37.406Z,29.59
2022-08-14T13:52:04.245Z,29.83
2022-08-14T13:54:42.117Z,29.96
2022-08-14T13:57:08.363Z,30.03
2022-08-14T13:59:37.992Z,30.00
2022-08-14T14:02:05.069Z,30.04
2022-08-14T14:04:31.474Z,30.15
2022-08-14T14:06:58.711Z,30.11
2022-08-14T14:09:25.434Z,30.56
2022-08-14T14:11:52.794Z,30.54
2022-08-14T14:14:29.789Z,30.60
2022-08-14T14:17:05.757Z,30.59
2022-08-14T14:19:34.847Z,30.13
2022-08-14T14:22:01.530Z,29.83
2022-08-14T14:24:34.547Z,29.96
2022-08-14T14:27:09.686Z,29.85
2022-08-14T14:29:50.728Z,30.00
2022-08-14T14:32:22.289Z,30.21
2022-08-14T14:34:48.578Z,30.34
2022-08-14T14:37:15.391Z,30.43
2022-08-14T14:40:52.591Z,30.53
2022-08-14T14:42:32.060Z,30.67
2022-08-14T14:44:58.936Z,30.66
2022-08-14T14:47:25.476Z,30.66
2022-08-14T14:49:55.220Z,30.66
2022-08-14T14:52:26.891Z,30.57
2022-08-14T14:54:54.238Z,30.65
2022-08-14T14:57:21.057Z,30.47
2022-08-14T14:59:47.881Z,30.67
2022-08-14T15:02:16.486Z,30.49
2022-08-14T15:04:44.315Z,30.43
2022-08-14T15:07:10.678Z,30.29
2022-08-14T15:09:38.978Z,29.90
2022-08-14T15:12:34.292Z,29.37
2022-08-14T15:14:55.328Z,29.36
2022-08-14T15:17:23.785Z,29.49
2022-08-14T15:19:56.364Z,29.55
2022-08-14T15:22:25.197Z,29.29
2022-08-14T15:24:51.746Z,29.16
2022-08-14T15:27:26.298Z,29.17
2022-08-14T15:29:53.207Z,29.41
2022-08-14T15:32:23.027Z,29.38
2022-08-14T15:34:51.801Z,29.42
2022-08-14T15:37:19.395Z,29.42
2022-08-14T15:39:45.766Z,29.59
2022-08-14T15:42:15.794Z,29.47
2022-08-14T15:44:44.720Z,29.50
2022-08-14T15:47:28.167Z,29.61
2022-08-14T15:49:59.192Z,29.51
2022-08-14T15:52:32.996Z,29.55
2022-08-14T15:55:02.792Z,29.63
2022-08-14T15:57:30.655Z,29.60
2022-08-14T16:00:39.963Z,29.54
2022-08-14T16:03:03.082Z,29.50
2022-08-14T16:05:29.401Z,29.65
2022-08-14T16:08:05.007Z,29.67
2022-08-14T16:10:51.207Z,29.71
2022-08-14T16:13:22.925Z,29.63
2022-08-14T16:16:49.204Z,29.66
2022-08-14T16:18:51.370Z,29.52
2022-08-14T16:21:17.662Z,29.25
2022-08-14T16:23:46.960Z,29.37
2022-08-14T16:26:20.401Z,29.35
2022-08-14T16:29:02.516Z,29.40
2022-08-14T16:34:46.802Z,29.42
2022-08-14T16:37:03.090Z,29.39
2022-08-14T16:39:29.469Z,29.51
2022-08-14T16:41:59.222Z,29.56
2022-08-14T16:44:32.013Z,29.62
2022-08-14T16:47:00.250Z,29.51
2022-08-14T16:50:02.941Z,29.55
2022-08-14T16:52:25.434Z,29.56
2022-08-14T16:55:00.074Z,29.74
2022-08-14T16:57:26.406Z,29.70
2022-08-14T16:59:58.894Z,29.79
2022-08-14T17:02:25.499Z,29.65
2022-08-14T17:04:52.726Z,29.78
2022-08-14T17:07:19.957Z,29.81
2022-08-14T17:09:53.077Z,29.85
2022-08-14T17:12:33.989Z,29.77
2022-08-14T17:15:09.867Z,29.69
2022-08-14T17:17:37.327Z,29.56
2022-08-14T17:20:25.049Z,29.28
2022-08-14T17:22:51.800Z,29.19
2022-08-14T17:25:18.256Z,29.12
2022-08-14T17:27:49.301Z,29.14
2022-08-14T17:30:31.819Z,29.04
2022-08-14T17:33:03.319Z,28.99
2022-08-14T17:35:58.652Z,28.97
2022-08-14T17:38:38.735Z,28.81
2022-08-14T17:41:21.866Z,28.73
2022-08-14T17:46:23.824Z,28.77
2022-08-14T17:49:14.295Z,28.57
2022-08-14T17:51:38.530Z,28.63
2022-08-14T17:54:22.792Z,28.57
2022-08-14T17:57:01.362Z,28.55
2022-08-14T17:59:27.659Z,28.41
2022-08-14T18:01:54.614Z,28.31
2022-08-14T18:04:28.797Z,28.37
2022-08-14T18:07:16.114Z,28.30
2022-08-14T18:09:57.201Z,28.20
2022-08-14T18:12:31.985Z,28.06
2022-08-14T18:15:01.264Z,28.07
2022-08-14T18:17:35.640Z,27.97
2022-08-14T18:20:02.300Z,27.82
2022-08-14T18:22:49.654Z,27.86
2022-08-14T18:25:19.199Z,27.83
2022-08-14T18:27:49.138Z,27.61
2022-08-14T18:30:31.987Z,27.52
2022-08-14T18:33:04.106Z,27.53
2022-08-14T18:35:45.638Z,27.51
2022-08-14T18:38:26.429Z,27.54
2022-08-14T18:40:58.998Z,27.45
2022-08-14T18:43:25.311Z,27.43
2022-08-14T18:45:52.131Z,27.43
2022-08-14T18:48:19.063Z,27.26
2022-08-14T18:50:45.644Z,27.19
2022-08-14T18:53:12.795Z,27.22
2022-08-14T18:55:53.135Z,27.19
2022-08-14T18:58:29.597Z,27.13
2022-08-14T19:00:58.923Z,27.06
2022-08-14T19:03:29.107Z,26.93
2022-08-14T19:05:55.400Z,26.87
2022-08-14T19:08:25.215Z,26.88
2022-08-14T19:10:51.697Z,26.78
2022-08-14T19:13:20.402Z,26.71
2022-08-14T19:15:56.563Z,26.51
2022-08-14T19:18:26.729Z,26.53
2022-08-14T19:20:55.336Z,26.52
2022-08-14T19:23:43.886Z,26.48
2022-08-14T19:26:36.820Z,26.47
2022-08-14T19:28:58.377Z,26.40
2022-08-14T19:31:37.129Z,26.37
2022-08-14T19:34:08.999Z,26.31
2022-08-14T19:36:55.454Z,26.24
2022-08-14T19:39:21.967Z,26.19
2022-08-14T19:41:51.787Z,26.07
2022-08-14T19:44:19.184Z,26.07
2022-08-14T19:46:59.711Z,26.04
2022-08-14T19:50:08.617Z,26.02
2022-08-14T19:52:17.574Z,25.99
2022-08-14T19:54:47.358Z,25.98
2022-08-14T19:57:13.656Z,25.95
2022-08-14T19:59:57.255Z,25.88
2022-08-14T20:02:25.156Z,25.86
2022-08-14T20:04:57.675Z,25.66
2022-08-14T20:07:24.439Z,25.45
2022-08-14T20:11:05.840Z,25.56
2022-08-14T20:12:57.753Z,25.51
2022-08-14T20:15:24.516Z,25.55
2022-08-14T20:17:52.680Z,25.45
2022-08-14T20:20:21.028Z,25.44
2022-08-14T20:22:58.653Z,25.47
2022-08-14T20:25:28.285Z,25.43
2022-08-14T20:27:59.895Z,25.46
2022-08-14T20:30:33.037Z,25.42
2022-08-14T20:33:01.471Z,25.39
2022-08-14T20:35:35.210Z,25.35
2022-08-14T20:38:30.252Z,25.30
2022-08-14T20:40:50.829Z,25.24
2022-08-14T20:43:35.759Z,25.20
2022-08-14T21:00:33.784Z,24.86
2022-08-14T21:03:00.866Z,24.79
2022-08-14T21:05:33.735Z,24.78
2022-08-14T21:08:08.471Z,24.75
2022-08-14T21:10:47.064Z,24.65
2022-08-14T21:13:52.611Z,24.62
2022-08-14T21:16:03.710Z,24.56
2022-08-14T21:18:30.605Z,24.50
2022-08-14T21:20:58.119Z,24.53
2022-08-14T21:23:24.447Z,24.41
2022-08-14T21:25:53.896Z,24.34
2022-08-14T21:28:30.632Z,24.26
2022-08-14T21:31:01.901Z,24.37
2022-08-14T21:33:28.830Z,24.31
2022-08-14T21:35:55.822Z,24.32
2022-08-14T21:38:22.250Z,24.07
2022-08-14T21:41:01.082Z,24.02
2022-08-14T21:43:27.379Z,24.05
2022-08-14T21:45:57.553Z,23.69
2022-08-14T21:48:25.216Z,23.91
2022-08-14T21:51:01.015Z,24.01
2022-08-14T21:53:58.358Z,23.99
2022-08-14T21:56:37.322Z,23.92
2022-08-14T21:59:05.949Z,23.92
2022-08-14T22:02:01.218Z,23.88
2022-08-14T22:04:33.637Z,23.79
2022-08-14T22:07:01.039Z,23.74
2022-08-14T22:09:36.137Z,23.65
2022-08-14T22:12:03.208Z,23.64
2022-08-14T22:14:33.312Z,23.34
2022-08-14T22:17:12.969Z,23.45
2022-08-14T22:19:47.310Z,23.55
2022-08-14T22:22:21.512Z,23.55
2022-08-14T22:24:54.086Z,23.53
2022-08-14T22:27:27.348Z,23.52
2022-08-14T22:29:58.627Z,23.48
2022-08-14T22:32:35.183Z,23.47
2022-08-14T22:35:11.307Z,23.41
2022-08-14T22:37:39.582Z,23.27
2022-08-14T22:40:54.605Z,23.11
2022-08-14T22:43:00.399Z,22.89
2022-08-14T22:45:36.522Z,22.62
2022-08-14T22:48:05.037Z,22.91
2022-08-14T22:50:33.563Z,22.87
2022-08-14T22:53:00.252Z,23.03
2022-08-14T22:55:27.326Z,23.04
2022-08-14T22:57:53.546Z,23.01
2022-08-14T23:00:20.420Z,23.02
2022-08-14T23:02:57.248Z,23.03
2022-08-14T23:05:24.329Z,22.93
2022-08-14T23:08:56.466Z,22.86
2022-08-14T23:10:52.941Z,22.92
2022-08-14T23:13:20.108Z,22.89
2022-08-14T23:15:47.125Z,22.85
2022-08-14T23:18:13.461Z,22.77
2022-08-14T23:20:42.301Z,22.62
2022-08-14T23:23:10.680Z,22.60
2022-08-14T23:25:57.978Z,22.65
2022-08-14T23:28:34.445Z,22.69
2022-08-14T23:31:10.145Z,22.57
2022-08-14T23:33:36.451Z,22.59
2022-08-14T23:36:32.783Z,22.57
2022-08-14T23:39:00.183Z,22.34
2022-08-14T23:41:26.496Z,22.27
2022-08-14T23:44:12.783Z,22.19
2022-08-14T23:46:39.588Z,22.11
2022-08-14T23:49:05.963Z,22.19
2022-08-14T23:51:36.325Z,22.26
2022-08-14T23:54:02.989Z,22.25
2022-08-14T23:56:31.832Z,22.23
2022-08-14T23:58:58.720Z,22.16
